createdAt,value
2019-04-27T00:00:35.414Z,9.95
2019-04-27T00:03:06.475Z,9.63
2019-04-27T00:05:46.547Z,9.45
2019-04-27T00:08:38.630Z,9.33
2019-04-27T00:11:14.313Z,9.90
2019-04-27T00:13:44.257Z,9.95
2019-04-27T00:16:23.427Z,8.70
2019-04-27T00:18:58.109Z,9.38
2019-04-27T00:21:37.954Z,8.73
2019-04-27T00:24:07.350Z,9.45
2019-04-27T00:26:36.697Z,9.20
2019-04-27T00:29:06.140Z,9.15
2019-04-27T00:31:35.644Z,9.20
2019-04-27T00:34:05.272Z,9.30
2019-04-27T00:36:43.522Z,10.88
2019-04-27T00:39:20.642Z,11.83
2019-04-27T00:41:50.180Z,9.55
2019-04-27T00:44:19.550Z,9.03
2019-04-27T00:46:48.989Z,9.63
2019-04-27T00:49:20.229Z,9.20
2019-04-27T00:51:49.523Z,9.70
2019-04-27T00:54:18.858Z,9.58
2019-04-27T00:56:53.014Z,9.80
2019-04-27T00:59:30.300Z,8.93
2019-04-27T01:02:07.363Z,9.60
2019-04-27T01:04:37.140Z,10.38
2019-04-27T01:07:06.757Z,9.73
2019-04-27T01:09:36.475Z,9.35
2019-04-27T01:12:06.386Z,9.33
2019-04-27T01:14:36.208Z,10.18
2019-04-27T01:17:05.639Z,10.32
2019-04-27T01:19:35.385Z,10.00
2019-04-27T01:22:04.935Z,10.60
2019-04-27T01:24:34.337Z,10.98
2019-04-27T01:27:21.543Z,10.03
2019-04-27T01:29:52.087Z,10.93
2019-04-27T01:32:21.541Z,10.10
2019-04-27T01:34:50.928Z,11.30
2019-04-27T01:37:21.178Z,11.30
2019-04-27T01:39:50.757Z,12.53
2019-04-27T01:42:20.247Z,11.90
2019-04-27T01:44:51.085Z,11.57
2019-04-27T01:47:20.626Z,12.18
2019-04-27T01:49:50.027Z,13.50
2019-04-27T01:52:19.549Z,14.53
2019-04-27T01:54:49.541Z,13.38
2019-04-27T01:57:19.500Z,12.80
2019-04-27T01:59:49.108Z,13.28
2019-04-27T02:02:26.826Z,13.20
2019-04-27T02:05:08.961Z,13.45
2019-04-27T02:07:38.989Z,12.60
2019-04-27T02:10:10.510Z,12.53
2019-04-27T02:12:39.883Z,12.03
2019-04-27T02:15:10.705Z,11.93
2019-04-27T02:17:40.173Z,13.28
2019-04-27T02:20:10.155Z,12.55
2019-04-27T02:22:39.523Z,12.25
2019-04-27T02:25:09.175Z,12.93
2019-04-27T02:27:40.236Z,13.13
2019-04-27T02:30:30.482Z,12.82
2019-04-27T02:33:15.775Z,13.08
2019-04-27T02:35:45.205Z,12.33
2019-04-27T02:38:14.658Z,13.72
2019-04-27T02:40:49.862Z,13.20
2019-04-27T02:43:21.305Z,12.53
2019-04-27T02:45:50.754Z,12.70
2019-04-27T02:48:20.174Z,13.22
2019-04-27T02:50:51.202Z,12.68
2019-04-27T02:53:22.232Z,12.50
2019-04-27T02:55:51.589Z,12.90
2019-04-27T02:58:21.668Z,14.10
2019-04-27T03:00:51.185Z,14.00
2019-04-27T03:03:20.648Z,14.15
2019-04-27T03:05:50.528Z,14.95
2019-04-27T03:08:20.258Z,13.53
2019-04-27T03:10:50.493Z,16.12
2019-04-27T03:13:21.538Z,19.48
2019-04-27T03:16:00.469Z,15.05
2019-04-27T03:18:40.087Z,14.47
2019-04-27T03:24:04.228Z,25.97
2019-04-27T03:26:44.114Z,15.10
2019-04-27T03:29:14.307Z,13.75
2019-04-27T03:31:47.256Z,13.75
2019-04-27T03:34:16.334Z,13.65
2019-04-27T03:36:49.329Z,12.45
2019-04-27T03:39:19.983Z,12.73
2019-04-27T03:41:52.278Z,12.47
2019-04-27T03:44:20.306Z,13.25
2019-04-27T03:46:49.753Z,13.15
2019-04-27T03:49:31.887Z,13.15
2019-04-27T03:51:54.633Z,13.08
2019-04-27T03:54:31.437Z,11.95
2019-04-27T03:57:02.683Z,12.37
2019-04-27T03:59:50.608Z,12.60
2019-04-27T04:02:20.452Z,13.18
2019-04-27T04:04:50.662Z,13.08
2019-04-27T04:07:20.330Z,13.20
2019-04-27T04:09:50.438Z,12.70
2019-04-27T04:12:30.053Z,11.20
2019-04-27T04:14:59.801Z,11.68
2019-04-27T04:17:30.837Z,12.45
2019-04-27T04:20:01.916Z,12.23
2019-04-27T04:22:31.492Z,13.05
2019-04-27T04:25:00.890Z,12.60
2019-04-27T04:27:30.398Z,12.93
2019-04-27T04:29:59.860Z,13.58
2019-04-27T04:32:29.930Z,13.10
2019-04-27T04:35:21.534Z,13.28
2019-04-27T04:37:52.798Z,13.35
2019-04-27T04:40:23.864Z,13.03
2019-04-27T04:42:54.883Z,13.18
2019-04-27T04:45:26.083Z,11.40
2019-04-27T04:47:59.465Z,12.30
2019-04-27T04:50:30.440Z,12.07
2019-04-27T04:53:00.062Z,12.58
2019-04-27T04:55:30.685Z,12.43
2019-04-27T04:58:00.252Z,12.68
2019-04-27T05:00:30.086Z,11.80
2019-04-27T05:02:59.684Z,11.57
2019-04-27T05:05:29.401Z,11.78
2019-04-27T05:08:00.760Z,10.30
2019-04-27T05:10:31.258Z,11.10
2019-04-27T05:13:00.825Z,10.68
2019-04-27T05:17:59.187Z,11.68
2019-04-27T05:20:30.366Z,10.20
2019-04-27T05:22:59.904Z,11.20
2019-04-27T05:25:29.470Z,11.40
2019-04-27T05:27:59.650Z,11.20
2019-04-27T05:30:29.239Z,11.12
2019-04-27T05:32:58.694Z,9.73
2019-04-27T05:35:29.763Z,10.90
2019-04-27T05:38:01.773Z,11.35
2019-04-27T05:40:31.131Z,11.00
2019-04-27T05:43:00.665Z,10.75
2019-04-27T05:45:59.449Z,10.10
2019-04-27T05:48:33.884Z,10.70
2019-04-27T05:51:03.346Z,11.08
2019-04-27T05:53:35.684Z,11.90
2019-04-27T05:56:05.077Z,11.35
2019-04-27T05:58:34.531Z,12.15
2019-04-27T06:01:04.058Z,11.65
2019-04-27T06:03:33.493Z,11.38
2019-04-27T06:06:03.210Z,11.83
2019-04-27T06:08:32.675Z,11.33
2019-04-27T06:11:03.543Z,11.95
2019-04-27T06:13:33.028Z,11.43
2019-04-27T06:16:02.662Z,10.85
2019-04-27T06:18:32.350Z,11.38
2019-04-27T06:21:01.739Z,11.78
2019-04-27T06:23:31.212Z,10.35
2019-04-27T06:26:01.855Z,10.85
2019-04-27T06:28:31.468Z,11.35
2019-04-27T06:31:01.202Z,11.20
2019-04-27T06:33:34.322Z,10.65
2019-04-27T06:36:02.100Z,11.43
2019-04-27T06:38:32.903Z,11.15
2019-04-27T06:41:02.527Z,10.18
2019-04-27T06:43:34.051Z,11.28
2019-04-27T06:46:08.815Z,10.58
2019-04-27T06:48:41.531Z,10.68
2019-04-27T06:51:13.705Z,9.98
2019-04-27T06:53:43.761Z,11.50
2019-04-27T06:56:13.365Z,11.15
2019-04-27T06:58:42.929Z,11.08
2019-04-27T07:01:12.487Z,10.98
2019-04-27T07:03:41.913Z,12.10
2019-04-27T07:06:14.148Z,12.53
2019-04-27T07:08:43.636Z,11.68
2019-04-27T07:11:15.255Z,11.97
2019-04-27T07:13:44.788Z,12.00
2019-04-27T07:16:14.434Z,10.58
2019-04-27T07:18:46.960Z,11.10
2019-04-27T07:21:24.791Z,10.28
2019-04-27T07:23:59.737Z,10.48
2019-04-27T07:26:31.266Z,10.03
2019-04-27T07:29:03.966Z,10.23
2019-04-27T07:31:36.575Z,10.72
2019-04-27T07:34:09.459Z,10.63
2019-04-27T07:39:34.809Z,9.75
2019-04-27T07:42:05.619Z,9.37
2019-04-27T07:44:50.029Z,9.23
2019-04-27T07:47:23.837Z,9.50
2019-04-27T07:49:54.890Z,10.25
2019-04-27T07:52:24.712Z,11.25
2019-04-27T07:54:54.333Z,11.15
2019-04-27T07:57:30.488Z,9.83
2019-04-27T08:00:15.542Z,11.05
2019-04-27T08:02:48.659Z,11.80
2019-04-27T08:05:23.968Z,11.77
2019-04-27T08:07:56.584Z,11.80
2019-04-27T08:10:29.298Z,11.40
2019-04-27T08:13:24.821Z,11.63
2019-04-27T08:15:39.588Z,12.13
2019-04-27T08:18:12.347Z,11.33
2019-04-27T08:20:49.104Z,11.40
2019-04-27T08:23:22.568Z,11.30
2019-04-27T08:25:53.705Z,10.43
2019-04-27T08:28:41.214Z,9.30
2019-04-27T08:31:25.171Z,9.17
2019-04-27T08:36:28.877Z,9.43
2019-04-27T08:39:01.646Z,10.10
2019-04-27T08:41:32.984Z,8.93
2019-04-27T08:44:04.104Z,8.70
2019-04-27T08:46:36.260Z,8.50
2019-04-27T08:49:10.674Z,9.97
2019-04-27T08:51:41.524Z,10.98
2019-04-27T08:54:15.009Z,9.87
2019-04-27T08:56:44.734Z,10.90
2019-04-27T08:59:17.137Z,10.63
2019-04-27T09:01:49.286Z,10.70
2019-04-27T09:04:20.758Z,10.72
2019-04-27T09:06:51.615Z,10.10
2019-04-27T09:09:39.690Z,9.17
2019-04-27T09:12:16.645Z,10.88
2019-04-27T09:15:00.425Z,10.55
2019-04-27T09:17:39.554Z,10.68
2019-04-27T09:20:14.709Z,10.82
2019-04-27T09:22:46.095Z,10.23
2019-04-27T09:25:24.607Z,9.80
2019-04-27T09:27:59.719Z,10.50
2019-04-27T09:30:30.301Z,10.43
2019-04-27T09:35:48.237Z,10.47
2019-04-27T09:38:23.215Z,10.60
2019-04-27T09:43:56.606Z,10.03
2019-04-27T09:46:28.956Z,10.33
2019-04-27T09:49:01.216Z,10.47
2019-04-27T09:51:36.387Z,10.07
2019-04-27T09:54:08.708Z,10.23
2019-04-27T09:56:44.223Z,10.23
2019-04-27T09:59:21.556Z,10.97
2019-04-27T10:01:55.592Z,10.38
2019-04-27T10:07:19.115Z,10.30
2019-04-27T10:09:48.220Z,11.63
2019-04-27T10:12:17.630Z,11.47
2019-04-27T10:14:53.005Z,10.30
2019-04-27T10:17:23.832Z,11.50
2019-04-27T10:19:57.036Z,11.23
2019-04-27T10:22:42.875Z,11.20
2019-04-27T10:25:22.994Z,10.17
2019-04-27T10:27:59.651Z,10.93
2019-04-27T10:30:35.829Z,11.40
2019-04-27T10:33:08.379Z,10.93
2019-04-27T10:35:42.110Z,11.10
2019-04-27T10:38:11.427Z,11.37
2019-04-27T10:40:40.933Z,10.17
2019-04-27T10:43:17.831Z,9.10
2019-04-27T10:45:52.404Z,13.10
2019-04-27T10:48:26.304Z,11.00
2019-04-27T10:51:03.664Z,9.60
2019-04-27T10:53:38.917Z,9.17
2019-04-27T10:56:11.806Z,8.20
2019-04-27T10:58:43.441Z,8.23
2019-04-27T11:01:20.067Z,8.70
2019-04-27T11:03:55.517Z,8.60
2019-04-27T11:06:29.925Z,8.03
2019-04-27T11:09:02.349Z,8.87
2019-04-27T11:11:36.522Z,7.73
2019-04-27T11:14:18.258Z,7.40
2019-04-27T11:16:41.323Z,7.50
2019-04-27T11:19:13.400Z,7.83
2019-04-27T11:21:45.631Z,7.00
2019-04-27T11:24:23.958Z,7.40
2019-04-27T11:26:56.961Z,8.00
2019-04-27T11:29:31.255Z,8.20
2019-04-27T11:32:01.785Z,7.93
2019-04-27T11:34:48.799Z,7.70
2019-04-27T11:37:28.607Z,7.80
2019-04-27T11:40:03.836Z,8.73
2019-04-27T11:42:34.607Z,8.80
2019-04-27T11:45:06.886Z,9.23
2019-04-27T11:47:44.113Z,8.40
2019-04-27T11:50:18.215Z,8.80
2019-04-27T11:52:51.907Z,7.30
2019-04-27T11:55:27.387Z,8.17
2019-04-27T11:57:59.552Z,7.27
2019-04-27T12:00:29.620Z,7.77
2019-04-27T12:03:06.784Z,8.07
2019-04-27T12:05:41.742Z,7.03
2019-04-27T12:08:12.806Z,7.80
2019-04-27T12:10:41.975Z,7.53
2019-04-27T12:13:25.832Z,7.90
2019-04-27T12:16:02.859Z,7.53
2019-04-27T12:18:30.989Z,7.17
2019-04-27T12:21:01.948Z,6.77
2019-04-27T12:23:42.570Z,7.47
2019-04-27T12:26:17.781Z,8.10
2019-04-27T12:28:53.744Z,16.13
2019-04-27T12:31:25.815Z,7.53
2019-04-27T12:34:01.125Z,7.70
2019-04-27T12:36:36.539Z,8.03
2019-04-27T12:39:13.380Z,7.60
2019-04-27T12:41:47.612Z,8.73
2019-04-27T12:44:22.031Z,8.50
2019-04-27T12:47:02.585Z,8.60
2019-04-27T12:52:28.096Z,8.10
2019-04-27T12:55:11.240Z,8.87
2019-04-27T12:57:59.765Z,8.93
2019-04-27T13:00:38.179Z,9.10
2019-04-27T13:03:11.701Z,8.40
2019-04-27T13:05:46.334Z,8.67
2019-04-27T13:08:19.836Z,8.17
2019-04-27T13:10:57.312Z,8.20
2019-04-27T13:13:30.903Z,9.27
2019-04-27T13:16:08.179Z,9.50
2019-04-27T13:18:40.786Z,8.70
2019-04-27T13:21:11.783Z,8.93
2019-04-27T13:23:43.208Z,9.43
2019-04-27T13:26:25.302Z,8.87
2019-04-27T13:28:58.335Z,9.30
2019-04-27T13:31:32.720Z,10.37
2019-04-27T13:34:16.011Z,10.03
2019-04-27T13:36:50.491Z,9.97
2019-04-27T13:39:19.537Z,11.80
2019-04-27T13:41:48.772Z,10.47
2019-04-27T13:44:18.377Z,11.12
2019-04-27T13:47:08.838Z,10.13
2019-04-27T13:49:52.035Z,9.58
2019-04-27T13:52:23.337Z,11.48
2019-04-27T13:54:55.832Z,11.03
2019-04-27T13:57:27.883Z,11.25
2019-04-27T14:00:03.619Z,11.65
2019-04-27T14:02:36.149Z,11.05
2019-04-27T14:05:11.841Z,10.70
2019-04-27T14:07:41.539Z,10.55
2019-04-27T14:10:12.715Z,12.65
2019-04-27T14:12:43.685Z,13.15
2019-04-27T14:15:13.828Z,11.43
2019-04-27T14:17:44.868Z,13.32
2019-04-27T14:20:19.099Z,10.48
2019-04-27T14:22:48.727Z,14.00
2019-04-27T14:25:20.399Z,11.30
2019-04-27T14:27:53.710Z,11.23
2019-04-27T14:30:28.229Z,13.65
2019-04-27T14:33:02.069Z,15.10
2019-04-27T14:35:34.622Z,13.50
2019-04-27T14:38:04.450Z,13.68
2019-04-27T14:40:44.962Z,16.13
2019-04-27T14:43:18.927Z,13.38
2019-04-27T14:45:50.130Z,13.25
2019-04-27T14:48:19.673Z,14.35
2019-04-27T14:50:54.731Z,15.48
2019-04-27T14:53:23.992Z,16.37
2019-04-27T14:55:53.778Z,15.68
2019-04-27T14:58:23.347Z,15.35
2019-04-27T15:00:54.106Z,17.23
2019-04-27T15:03:25.024Z,13.83
2019-04-27T15:05:55.227Z,15.55
2019-04-27T15:08:26.479Z,14.28
2019-04-27T15:10:59.438Z,23.47
2019-04-27T15:13:28.773Z,21.30
2019-04-27T15:16:02.610Z,28.47
2019-04-27T15:18:34.631Z,16.07
2019-04-27T15:21:05.413Z,15.15
2019-04-27T15:23:35.088Z,16.55
2019-04-27T15:26:04.786Z,16.05
2019-04-27T15:28:36.264Z,17.87
2019-04-27T15:31:07.494Z,20.95
2019-04-27T15:36:23.633Z,37.33
2019-04-27T15:39:11.132Z,25.10
2019-04-27T15:41:44.884Z,32.45
2019-04-27T15:44:14.948Z,31.97
2019-04-27T15:46:44.519Z,30.70
2019-04-27T15:49:14.032Z,28.50
2019-04-27T15:51:43.470Z,21.30
2019-04-27T15:54:12.896Z,16.15
2019-04-27T15:56:42.360Z,17.87
2019-04-27T15:59:11.836Z,24.67
2019-04-27T16:01:41.522Z,20.27
2019-04-27T16:04:12.546Z,19.62
2019-04-27T16:06:42.915Z,19.45
2019-04-27T16:09:15.948Z,26.82
2019-04-27T16:11:50.309Z,23.45
2019-04-27T16:14:18.814Z,20.30
2019-04-27T16:16:48.804Z,20.92
2019-04-27T16:19:18.565Z,24.12
2019-04-27T16:21:54.338Z,21.25
2019-04-27T16:24:21.424Z,20.70
2019-04-27T16:26:54.616Z,24.35
2019-04-27T16:29:23.134Z,28.02
2019-04-27T16:31:53.618Z,29.37
2019-04-27T16:34:23.047Z,27.52
2019-04-27T16:36:55.180Z,33.40
2019-04-27T16:39:24.648Z,25.50
2019-04-27T16:41:54.033Z,26.00
2019-04-27T16:44:23.481Z,55.20
2019-04-27T16:46:52.936Z,27.05
2019-04-27T16:49:22.427Z,25.70
2019-04-27T16:51:51.822Z,23.55
2019-04-27T16:54:21.565Z,20.95
2019-04-27T16:57:02.056Z,20.50
2019-04-27T16:59:39.146Z,10.28
2019-04-27T17:01:53.424Z,4.67
2019-04-27T17:04:22.790Z,3.70
2019-04-27T17:06:52.318Z,4.55
2019-04-27T17:09:21.652Z,3.40
2019-04-27T17:11:51.865Z,3.95
2019-04-27T17:14:28.916Z,4.42
2019-04-27T17:16:55.772Z,4.30
2019-04-27T17:19:28.625Z,4.22
2019-04-27T17:21:57.882Z,2.92
2019-04-27T17:24:41.971Z,2.90
2019-04-27T17:27:11.242Z,3.80
2019-04-27T17:29:39.548Z,3.52
2019-04-27T17:32:10.844Z,3.30
2019-04-27T17:34:40.228Z,2.98
2019-04-27T17:37:09.568Z,2.50
2019-04-27T17:39:38.962Z,2.30
2019-04-27T17:42:08.664Z,4.83
2019-04-27T17:44:39.316Z,3.02
2019-04-27T17:47:10.679Z,3.27
2019-04-27T17:49:41.623Z,4.12
2019-04-27T17:52:13.081Z,4.60
2019-04-27T17:54:47.364Z,4.33
2019-04-27T17:57:13.654Z,4.55
2019-04-27T17:59:43.264Z,7.03
2019-04-27T18:02:12.744Z,7.40
2019-04-27T18:04:42.036Z,6.03
2019-04-27T18:07:11.461Z,5.15
2019-04-27T18:09:43.721Z,5.65
2019-04-27T18:12:14.677Z,5.78
2019-04-27T18:14:43.049Z,5.00
2019-04-27T18:17:12.507Z,4.78
2019-04-27T18:19:46.497Z,5.37
2019-04-27T18:22:15.860Z,6.47
2019-04-27T18:24:49.791Z,4.78
2019-04-27T18:27:37.788Z,8.05
2019-04-27T18:30:10.808Z,6.05
2019-04-27T18:32:40.464Z,5.58
2019-04-27T18:35:12.248Z,5.87
2019-04-27T18:37:41.622Z,5.95
2019-04-27T18:40:11.052Z,6.33
2019-04-27T18:42:40.420Z,7.17
2019-04-27T18:45:10.002Z,7.30
2019-04-27T18:47:41.002Z,8.10
2019-04-27T18:50:18.071Z,8.40
2019-04-27T18:52:50.219Z,9.13
2019-04-27T18:55:20.833Z,8.90
2019-04-27T18:57:54.229Z,7.12
2019-04-27T19:00:21.889Z,5.85
2019-04-27T19:02:51.258Z,5.37
2019-04-27T19:05:20.703Z,5.05
2019-04-27T19:07:50.139Z,7.05
2019-04-27T19:10:19.561Z,6.20
2019-04-27T19:12:49.062Z,5.72
2019-04-27T19:15:18.584Z,8.20
2019-04-27T19:17:48.882Z,7.17
2019-04-27T19:20:18.853Z,6.37
2019-04-27T19:22:49.064Z,7.35
2019-04-27T19:25:20.258Z,6.83
2019-04-27T19:27:51.276Z,7.17
2019-04-27T19:30:22.314Z,8.15
2019-04-27T19:32:51.915Z,5.65
2019-04-27T19:35:21.350Z,6.25
2019-04-27T19:37:50.758Z,6.42
2019-04-27T19:40:20.125Z,7.67
2019-04-27T19:42:49.558Z,8.75
2019-04-27T19:45:21.050Z,8.45
2019-04-27T19:47:50.336Z,10.32
2019-04-27T19:50:19.899Z,9.83
2019-04-27T19:52:50.312Z,9.68
2019-04-27T19:55:19.826Z,9.68
2019-04-27T19:57:49.751Z,9.53
2019-04-27T20:00:37.421Z,10.43
2019-04-27T20:03:08.740Z,8.70
2019-04-27T20:05:38.935Z,9.18
2019-04-27T20:08:09.902Z,8.50
2019-04-27T20:10:39.258Z,7.72
2019-04-27T20:13:08.658Z,9.95
2019-04-27T20:15:38.122Z,13.68
2019-04-27T20:18:07.480Z,15.35
2019-04-27T20:20:37.007Z,11.35
2019-04-27T20:23:06.360Z,15.88
2019-04-27T20:25:35.883Z,16.48
2019-04-27T20:28:05.360Z,11.60
2019-04-27T20:30:34.826Z,9.55
2019-04-27T20:33:04.156Z,8.83
2019-04-27T20:35:33.482Z,7.53
2019-04-27T20:38:02.925Z,8.15
2019-04-27T20:40:32.366Z,7.65
2019-04-27T20:43:01.739Z,8.30
2019-04-27T20:45:32.733Z,8.33
2019-04-27T20:48:02.357Z,6.55
2019-04-27T20:50:32.887Z,7.75
2019-04-27T20:53:04.140Z,6.65
2019-04-27T20:55:33.527Z,8.30
2019-04-27T20:58:03.020Z,11.25
2019-04-27T21:00:34.738Z,11.12
2019-04-27T21:03:08.506Z,10.15
2019-04-27T21:05:48.295Z,8.15
2019-04-27T21:08:25.305Z,7.12
2019-04-27T21:10:54.701Z,7.30
2019-04-27T21:13:24.107Z,6.75
2019-04-27T21:15:53.474Z,7.45
2019-04-27T21:18:22.893Z,6.53
2019-04-27T21:20:52.254Z,6.72
2019-04-27T21:23:21.611Z,6.72
2019-04-27T21:25:53.370Z,8.60
2019-04-27T21:28:22.095Z,7.87
2019-04-27T21:30:51.449Z,8.25
2019-04-27T21:33:21.567Z,9.03
2019-04-27T21:35:51.316Z,8.60
2019-04-27T21:38:20.852Z,9.98
2019-04-27T21:40:50.211Z,9.30
2019-04-27T21:43:22.277Z,9.45
2019-04-27T21:45:51.830Z,11.00
2019-04-27T21:48:21.384Z,10.20
2019-04-27T21:50:51.704Z,12.18
2019-04-27T21:53:41.284Z,13.78
2019-04-27T21:56:12.035Z,14.33
2019-04-27T21:58:42.057Z,14.98
2019-04-27T22:01:25.217Z,15.40
2019-04-27T22:03:54.601Z,13.62
2019-04-27T22:06:23.969Z,16.23
2019-04-27T22:08:53.417Z,16.15
2019-04-27T22:11:22.908Z,13.78
2019-04-27T22:13:52.308Z,13.85
2019-04-27T22:16:21.681Z,13.43
2019-04-27T22:18:51.918Z,13.22
2019-04-27T22:21:21.824Z,12.95
2019-04-27T22:23:52.883Z,12.15
2019-04-27T22:26:22.323Z,11.60
2019-04-27T22:28:52.119Z,11.48
2019-04-27T22:31:21.697Z,11.85
2019-04-27T22:33:54.297Z,11.78
2019-04-27T22:36:22.273Z,10.78
2019-04-27T22:38:52.312Z,12.60
2019-04-27T22:44:05.995Z,10.93
2019-04-27T22:46:36.994Z,10.70
2019-04-27T22:49:06.367Z,9.85
2019-04-27T22:51:35.789Z,8.10
2019-04-27T22:54:05.241Z,8.88
2019-04-27T22:56:34.615Z,8.08
2019-04-27T22:59:14.675Z,7.78
2019-04-27T23:01:57.879Z,6.70
2019-04-27T23:04:41.259Z,6.78
2019-04-27T23:07:11.070Z,7.97
2019-04-27T23:09:42.705Z,8.10
2019-04-27T23:12:12.246Z,8.08
2019-04-27T23:14:41.636Z,8.80
2019-04-27T23:17:15.366Z,8.38
2019-04-27T23:19:45.076Z,7.97
2019-04-27T23:22:14.440Z,7.22
2019-04-27T23:24:43.789Z,7.35
2019-04-27T23:27:15.306Z,8.43
2019-04-27T23:29:44.313Z,11.65
2019-04-27T23:32:15.318Z,11.85
2019-04-27T23:34:44.742Z,10.20
2019-04-27T23:37:14.091Z,8.60
2019-04-27T23:39:43.434Z,8.20
2019-04-27T23:42:12.795Z,9.25
2019-04-27T23:44:42.561Z,9.65
2019-04-27T23:47:11.978Z,12.00
2019-04-27T23:49:41.344Z,11.93
2019-04-27T23:52:18.345Z,11.20
2019-04-27T23:54:47.690Z,9.53
2019-04-27T23:57:17.050Z,8.63
2019-04-27T23:59:46.413Z,6.85
